sensor_id;sensor_type;location;lat;lon;timestamp;pressure;altitude;pressure_sealevel;temperature;humidity
35479;BME280;21594;49.794;18.652;2022-09-09T00:02:16;97881.98;;;17.91;100.00
35479;BME280;21594;49.794;18.652;2022-09-09T00:04:46;97887.79;;;17.94;100.00
35479;BME280;21594;49.794;18.652;2022-09-09T00:18:20;97882.48;;;17.74;100.00
35479;BME280;21594;49.794;18.652;2022-09-09T00:20:56;97891.59;;;17.72;100.00
35479;BME280;21594;49.794;18.652;2022-09-09T00:23:24;97887.11;;;17.68;100.00
35479;BME280;21594;49.794;18.652;2022-09-09T00:31:15;97895.38;;;17.69;100.00
35479;BME280;21594;49.794;18.652;2022-09-09T00:33:43;97893.23;;;17.69;100.00
35479;BME280;21594;49.794;18.652;2022-09-09T00:36:13;97895.39;;;17.65;100.00
35479;BME280;21594;49.794;18.652;2022-09-09T00:38:48;97900.69;;;17.65;100.00
35479;BME280;21594;49.794;18.652;2022-09-09T00:41:15;97905.63;;;17.68;100.00
35479;BME280;21594;49.794;18.652;2022-09-09T00:43:41;97909.30;;;17.67;100.00
35479;BME280;21594;49.794;18.652;2022-09-09T00:57:34;97920.53;;;17.65;100.00
35479;BME280;21594;49.794;18.652;2022-09-09T01:10:55;97920.87;;;17.66;100.00
35479;BME280;21594;49.794;18.652;2022-09-09T01:13:29;97922.19;;;17.66;100.00
35479;BME280;21594;49.794;18.652;2022-09-09T01:15:59;97920.68;;;17.68;100.00
35479;BME280;21594;49.794;18.652;2022-09-09T01:18:36;97921.20;;;17.67;100.00
35479;BME280;21594;49.794;18.652;2022-09-09T01:21:15;97916.06;;;17.70;100.00
35479;BME280;21594;49.794;18.652;2022-09-09T01:26:33;97924.34;;;17.71;100.00
35479;BME280;21594;49.794;18.652;2022-09-09T01:28:51;97926.49;;;17.71;100.00
35479;BME280;21594;49.794;18.652;2022-09-09T01:31:38;97928.31;;;17.71;100.00
35479;BME280;21594;49.794;18.652;2022-09-09T01:34:14;97926.16;;;17.70;100.00
35479;BME280;21594;49.794;18.652;2022-09-09T01:39:03;97940.38;;;17.65;100.00
35479;BME280;21594;49.794;18.652;2022-09-09T01:41:32;97947.64;;;17.63;100.00
35479;BME280;21594;49.794;18.652;2022-09-09T01:43:58;97944.84;;;17.61;100.00
35479;BME280;21594;49.794;18.652;2022-09-09T01:46:24;97945.45;;;17.58;100.00
35479;BME280;21594;49.794;18.652;2022-09-09T01:48:51;97951.09;;;17.55;100.00
35479;BME280;21594;49.794;18.652;2022-09-09T01:51:27;97941.48;;;17.54;100.00
35479;BME280;21594;49.794;18.652;2022-09-09T01:53:54;97943.30;;;17.54;100.00
35479;BME280;21594;49.794;18.652;2022-09-09T02:01:45;97949.24;;;17.52;100.00
35479;BME280;21594;49.794;18.652;2022-09-09T02:04:21;97953.21;;;17.52;100.00
35479;BME280;21594;49.794;18.652;2022-09-09T02:06:43;97958.50;;;17.52;100.00
35479;BME280;21594;49.794;18.652;2022-09-09T02:09:13;97953.39;;;17.54;100.00
35479;BME280;21594;49.794;18.652;2022-09-09T02:11:41;97964.13;;;17.57;100.00
35479;BME280;21594;49.794;18.652;2022-09-09T02:14:19;97960.34;;;17.55;100.00
35479;BME280;21594;49.794;18.652;2022-09-09T02:16:42;97958.84;;;17.57;100.00
35479;BME280;21594;49.794;18.652;2022-09-09T02:19:13;97963.98;;;17.58;100.00
35479;BME280;21594;49.794;18.652;2022-09-09T02:21:39;97965.18;;;17.60;100.00
35479;BME280;21594;49.794;18.652;2022-09-09T02:24:07;97965.52;;;17.61;100.00
35479;BME280;21594;49.794;18.652;2022-09-09T02:26:43;97962.53;;;17.60;100.00
35479;BME280;21594;49.794;18.652;2022-09-09T02:29:27;97971.80;;;17.60;100.00
35479;BME280;21594;49.794;18.652;2022-09-09T02:31:49;97971.30;;;17.65;100.00
35479;BME280;21594;49.794;18.652;2022-09-09T02:34:18;97969.15;;;17.64;100.00
35479;BME280;21594;49.794;18.652;2022-09-09T02:36:45;97972.81;;;17.67;100.00
35479;BME280;21594;49.794;18.652;2022-09-09T02:39:15;97976.78;;;17.71;100.00
35479;BME280;21594;49.794;18.652;2022-09-09T02:41:41;97978.10;;;17.71;100.00
35479;BME280;21594;49.794;18.652;2022-09-09T02:44:11;97981.73;;;17.74;100.00
35479;BME280;21594;49.794;18.652;2022-09-09T02:49:27;97977.61;;;17.80;100.00
35479;BME280;21594;49.794;18.652;2022-09-09T02:52:05;97984.72;;;17.79;100.00
35479;BME280;21594;49.794;18.652;2022-09-09T02:57:16;97979.11;;;17.82;100.00
35479;BME280;21594;49.794;18.652;2022-09-09T02:59:42;97982.90;;;17.84;100.00
35479;BME280;21594;49.794;18.652;2022-09-09T03:02:11;97987.89;;;17.83;100.00
35479;BME280;21594;49.794;18.652;2022-09-09T03:04:43;97986.04;;;17.75;100.00
35479;BME280;21594;49.794;18.652;2022-09-09T03:07:10;97980.91;;;17.62;100.00
35479;BME280;21594;49.794;18.652;2022-09-09T03:09:36;97993.61;;;17.62;100.00
35479;BME280;21594;49.794;18.652;2022-09-09T03:12:02;97996.45;;;17.69;100.00
35479;BME280;21594;49.794;18.652;2022-09-09T03:14:44;97997.28;;;17.73;100.00
35479;BME280;21594;49.794;18.652;2022-09-09T03:17:13;98005.25;;;17.77;100.00
35479;BME280;21594;49.794;18.652;2022-09-09T03:19:45;97998.27;;;17.68;100.00
35479;BME280;21594;49.794;18.652;2022-09-09T03:22:12;98002.23;;;17.60;100.00
35479;BME280;21594;49.794;18.652;2022-09-09T03:24:40;97999.43;;;17.62;100.00
35479;BME280;21594;49.794;18.652;2022-09-09T03:27:14;98009.34;;;17.68;100.00
35479;BME280;21594;49.794;18.652;2022-09-09T03:29:46;98004.91;;;17.72;100.00
35479;BME280;21594;49.794;18.652;2022-09-09T03:32:18;98002.91;;;17.70;100.00
35479;BME280;21594;49.794;18.652;2022-09-09T03:34:57;98007.52;;;17.68;100.00
35479;BME280;21594;49.794;18.652;2022-09-09T03:37:22;98009.19;;;17.65;100.00
35479;BME280;21594;49.794;18.652;2022-09-09T03:39:48;98010.17;;;17.60;100.00
35479;BME280;21594;49.794;18.652;2022-09-09T03:42:15;98011.34;;;17.70;100.00
35479;BME280;21594;49.794;18.652;2022-09-09T03:44:44;98011.83;;;17.73;100.00
35479;BME280;21594;49.794;18.652;2022-09-09T03:47:12;98013.50;;;17.78;100.00
35479;BME280;21594;49.794;18.652;2022-09-09T03:49:38;98010.88;;;17.82;100.00
35479;BME280;21594;49.794;18.652;2022-09-09T03:52:15;98018.33;;;17.83;100.00
35479;BME280;21594;49.794;18.652;2022-09-09T03:54:41;98018.82;;;17.86;100.00
35479;BME280;21594;49.794;18.652;2022-09-09T03:57:08;98016.69;;;17.94;100.00
35479;BME280;21594;49.794;18.652;2022-09-09T03:59:49;98017.52;;;17.94;100.00
35479;BME280;21594;49.794;18.652;2022-09-09T04:02:18;98022.30;;;17.95;100.00
35479;BME280;21594;49.794;18.652;2022-09-09T04:04:46;98019.98;;;17.96;100.00
35479;BME280;21594;49.794;18.652;2022-09-09T04:12:22;98025.44;;;17.90;100.00
35479;BME280;21594;49.794;18.652;2022-09-09T04:14:49;98022.45;;;17.89;100.00
35479;BME280;21594;49.794;18.652;2022-09-09T04:17:14;98029.41;;;17.86;100.00
35479;BME280;21594;49.794;18.652;2022-09-09T04:19:43;98029.75;;;17.83;100.00
35479;BME280;21594;49.794;18.652;2022-09-09T04:22:12;98023.44;;;17.80;100.00
35479;BME280;21594;49.794;18.652;2022-09-09T04:24:39;98024.27;;;17.77;100.00
35479;BME280;21594;49.794;18.652;2022-09-09T04:27:05;98023.25;;;17.74;100.00
35479;BME280;21594;49.794;18.652;2022-09-09T04:29:37;98020.61;;;17.74;100.00
35479;BME280;21594;49.794;18.652;2022-09-09T04:32:06;98021.77;;;17.75;100.00
35479;BME280;21594;49.794;18.652;2022-09-09T04:34:32;98013.84;;;17.75;100.00
35479;BME280;21594;49.794;18.652;2022-09-09T04:36:59;98015.65;;;17.75;100.00
35479;BME280;21594;49.794;18.652;2022-09-09T04:39:25;98012.36;;;17.73;100.00
35479;BME280;21594;49.794;18.652;2022-09-09T04:41:52;98009.52;;;17.70;100.00
35479;BME280;21594;49.794;18.652;2022-09-09T04:46:59;98016.78;;;17.64;100.00
35479;BME280;21594;49.794;18.652;2022-09-09T04:49:25;98016.78;;;17.60;100.00
35479;BME280;21594;49.794;18.652;2022-09-09T04:52:01;98021.86;;;17.57;100.00
35479;BME280;21594;49.794;18.652;2022-09-09T04:54:33;98028.96;;;17.57;100.00
35479;BME280;21594;49.794;18.652;2022-09-09T04:59:40;98033.95;;;17.56;100.00
35479;BME280;21594;49.794;18.652;2022-09-09T05:02:20;98036.41;;;17.57;100.00
35479;BME280;21594;49.794;18.652;2022-09-09T05:04:48;98039.39;;;17.58;100.00
35479;BME280;21594;49.794;18.652;2022-09-09T05:07:15;98034.63;;;17.62;100.00
35479;BME280;21594;49.794;18.652;2022-09-09T05:09:41;98038.45;;;17.64;100.00
35479;BME280;21594;49.794;18.652;2022-09-09T05:12:12;98039.28;;;17.64;100.00
35479;BME280;21594;49.794;18.652;2022-09-09T05:14:40;98038.30;;;17.65;100.00
35479;BME280;21594;49.794;18.652;2022-09-09T05:17:10;98041.09;;;17.68;100.00
35479;BME280;21594;49.794;18.652;2022-09-09T05:19:36;98045.06;;;17.68;100.00
35479;BME280;21594;49.794;18.652;2022-09-09T05:22:03;98043.93;;;17.70;100.00
35479;BME280;21594;49.794;18.652;2022-09-09T05:24:30;98045.11;;;17.76;100.00
35479;BME280;21594;49.794;18.652;2022-09-09T05:26:59;98050.41;;;17.80;100.00
35479;BME280;21594;49.794;18.652;2022-09-09T05:29:28;98045.60;;;17.79;100.00
35479;BME280;21594;49.794;18.652;2022-09-09T05:31:54;98049.57;;;17.79;100.00
35479;BME280;21594;49.794;18.652;2022-09-09T05:36:55;98047.41;;;17.79;100.00
35479;BME280;21594;49.794;18.652;2022-09-09T05:39:21;98045.94;;;17.84;100.00
35479;BME280;21594;49.794;18.652;2022-09-09T05:41:47;98039.84;;;17.88;100.00
35479;BME280;21594;49.794;18.652;2022-09-09T05:44:22;98048.47;;;17.94;100.00
35479;BME280;21594;49.794;18.652;2022-09-09T05:46:51;98046.46;;;17.96;100.00
35479;BME280;21594;49.794;18.652;2022-09-09T05:49:17;98045.66;;;18.00;100.00
35479;BME280;21594;49.794;18.652;2022-09-09T05:52:01;98052.93;;;18.02;100.00
35479;BME280;21594;49.794;18.652;2022-09-09T05:54:22;98046.00;;;18.05;100.00
35479;BME280;21594;49.794;18.652;2022-09-09T05:56:48;98042.52;;;18.04;100.00
35479;BME280;21594;49.794;18.652;2022-09-09T05:59:18;98039.03;;;18.08;100.00
35479;BME280;21594;49.794;18.652;2022-09-09T06:01:44;98039.22;;;18.10;100.00
35479;BME280;21594;49.794;18.652;2022-09-09T06:04:11;98035.40;;;18.13;100.00
35479;BME280;21594;49.794;18.652;2022-09-09T06:06:42;98032.75;;;18.13;100.00
35479;BME280;21594;49.794;18.652;2022-09-09T06:09:12;98025.33;;;18.16;100.00
35479;BME280;21594;49.794;18.652;2022-09-09T06:11:43;98027.63;;;18.19;100.00
35479;BME280;21594;49.794;18.652;2022-09-09T06:14:25;98029.29;;;18.24;100.00
35479;BME280;21594;49.794;18.652;2022-09-09T06:16:58;98025.48;;;18.31;100.00
35479;BME280;21594;49.794;18.652;2022-09-09T06:19:30;98024.65;;;18.34;100.00
35479;BME280;21594;49.794;18.652;2022-09-09T06:22:10;98034.92;;;18.42;100.00
35479;BME280;21594;49.794;18.652;2022-09-09T06:24:42;98037.41;;;18.47;100.00
35479;BME280;21594;49.794;18.652;2022-09-09T06:27:07;98041.09;;;18.54;100.00
35479;BME280;21594;49.794;18.652;2022-09-09T06:29:41;98035.77;;;18.62;100.00
35479;BME280;21594;49.794;18.652;2022-09-09T06:32:12;98044.38;;;18.68;100.00
35479;BME280;21594;49.794;18.652;2022-09-09T06:34:38;98038.23;;;18.72;100.00
35479;BME280;21594;49.794;18.652;2022-09-09T06:37:08;98038.91;;;18.74;100.00
35479;BME280;21594;49.794;18.652;2022-09-09T06:39:35;98047.02;;;18.80;100.00
35479;BME280;21594;49.794;18.652;2022-09-09T06:42:00;98033.41;;;18.84;100.00
35479;BME280;21594;49.794;18.652;2022-09-09T06:44:27;98030.76;;;18.84;100.00
35479;BME280;21594;49.794;18.652;2022-09-09T06:46:59;98033.08;;;18.83;100.00
35479;BME280;21594;49.794;18.652;2022-09-09T06:49:25;98030.74;;;18.88;100.00
35479;BME280;21594;49.794;18.652;2022-09-09T06:52:00;98029.77;;;18.93;100.00
35479;BME280;21594;49.794;18.652;2022-09-09T06:54:26;98029.08;;;18.95;100.00
35479;BME280;21594;49.794;18.652;2022-09-09T06:56:52;98030.06;;;19.02;100.00
35479;BME280;21594;49.794;18.652;2022-09-09T06:59:19;98033.05;;;19.03;100.00
35479;BME280;21594;49.794;18.652;2022-09-09T07:01:47;98039.16;;;19.07;100.00
35479;BME280;21594;49.794;18.652;2022-09-09T07:04:19;98034.51;;;19.13;100.00
35479;BME280;21594;49.794;18.652;2022-09-09T07:06:47;98038.11;;;19.20;100.00
35479;BME280;21594;49.794;18.652;2022-09-09T07:11:48;98033.64;;;19.25;100.00
35479;BME280;21594;49.794;18.652;2022-09-09T07:14:14;98034.43;;;19.34;100.00
35479;BME280;21594;49.794;18.652;2022-09-09T07:16:42;98028.58;;;19.42;100.00
35479;BME280;21594;49.794;18.652;2022-09-09T07:19:18;98035.55;;;19.51;100.00
35479;BME280;21594;49.794;18.652;2022-09-09T07:21:42;98038.35;;;19.58;100.00
35479;BME280;21594;49.794;18.652;2022-09-09T07:24:09;98037.63;;;19.64;100.00
35479;BME280;21594;49.794;18.652;2022-09-09T07:26:42;98042.91;;;19.72;100.00
35479;BME280;21594;49.794;18.652;2022-09-09T07:29:15;98042.22;;;19.78;100.00
35479;BME280;21594;49.794;18.652;2022-09-09T07:31:42;98043.52;;;19.82;100.00
35479;BME280;21594;49.794;18.652;2022-09-09T07:34:13;98043.28;;;19.92;100.00
35479;BME280;21594;49.794;18.652;2022-09-09T07:36:39;98047.40;;;19.98;100.00
35479;BME280;21594;49.794;18.652;2022-09-09T07:39:16;98046.87;;;20.07;100.00
35479;BME280;21594;49.794;18.652;2022-09-09T07:41:47;98053.64;;;20.10;100.00
35479;BME280;21594;49.794;18.652;2022-09-09T07:44:14;98052.14;;;20.11;100.00
35479;BME280;21594;49.794;18.652;2022-09-09T07:46:47;98050.12;;;20.13;100.00
35479;BME280;21594;49.794;18.652;2022-09-09T07:51:45;98046.45;;;20.18;100.00
35479;BME280;21594;49.794;18.652;2022-09-09T07:54:14;98038.95;;;20.22;100.00
35479;BME280;21594;49.794;18.652;2022-09-09T07:56:47;98035.09;;;20.24;100.00
35479;BME280;21594;49.794;18.652;2022-09-09T07:59:14;98037.04;;;20.30;100.00
35479;BME280;21594;49.794;18.652;2022-09-09T08:01:48;98045.71;;;20.28;100.00
35479;BME280;21594;49.794;18.652;2022-09-09T08:04:16;98037.54;;;20.30;100.00
35479;BME280;21594;49.794;18.652;2022-09-09T08:06:48;98039.72;;;20.34;100.00
35479;BME280;21594;49.794;18.652;2022-09-09T08:09:11;98042.17;;;20.40;100.00
35479;BME280;21594;49.794;18.652;2022-09-09T08:11:40;98039.30;;;20.45;100.00
35479;BME280;21594;49.794;18.652;2022-09-09T08:14:09;98042.53;;;20.56;100.00
35479;BME280;21594;49.794;18.652;2022-09-09T08:16:40;98041.77;;;20.66;100.00
35479;BME280;21594;49.794;18.652;2022-09-09T08:19:16;98037.73;;;20.70;100.00
35479;BME280;21594;49.794;18.652;2022-09-09T08:21:42;98040.18;;;20.75;100.00
35479;BME280;21594;49.794;18.652;2022-09-09T08:24:09;98044.33;;;20.78;100.00
35479;BME280;21594;49.794;18.652;2022-09-09T08:26:45;98050.09;;;20.81;100.00
35479;BME280;21594;49.794;18.652;2022-09-09T08:29:12;98051.38;;;20.85;100.00
35479;BME280;21594;49.794;18.652;2022-09-09T08:31:43;98051.54;;;20.88;100.00
35479;BME280;21594;49.794;18.652;2022-09-09T08:34:07;98046.17;;;20.92;100.00
35479;BME280;21594;49.794;18.652;2022-09-09T08:36:38;98044.79;;;20.96;100.00
35479;BME280;21594;49.794;18.652;2022-09-09T08:39:04;98045.45;;;20.98;100.00
35479;BME280;21594;49.794;18.652;2022-09-09T08:44:01;98044.12;;;20.98;100.00
35479;BME280;21594;49.794;18.652;2022-09-09T08:46:29;98042.73;;;21.02;100.00
35479;BME280;21594;49.794;18.652;2022-09-09T08:49:06;98043.34;;;21.08;100.00
35479;BME280;21594;49.794;18.652;2022-09-09T08:51:30;98043.47;;;21.15;100.00
35479;BME280;21594;49.794;18.652;2022-09-09T08:53:57;98042.19;;;21.25;100.00
35479;BME280;21594;49.794;18.652;2022-09-09T08:59:00;98048.02;;;21.25;100.00
35479;BME280;21594;49.794;18.652;2022-09-09T09:01:35;98041.48;;;21.27;100.00
35479;BME280;21594;49.794;18.652;2022-09-09T09:14:42;98020.27;;;21.34;100.00
35479;BME280;21594;49.794;18.652;2022-09-09T09:17:11;98025.20;;;21.26;100.00
35479;BME280;21594;49.794;18.652;2022-09-09T09:19:39;98023.59;;;21.36;100.00
35479;BME280;21594;49.794;18.652;2022-09-09T09:22:11;98021.23;;;21.52;100.00
35479;BME280;21594;49.794;18.652;2022-09-09T09:24:53;98027.99;;;21.69;100.00
35479;BME280;21594;49.794;18.652;2022-09-09T09:30:25;98011.75;;;22.00;100.00
35479;BME280;21594;49.794;18.652;2022-09-09T09:32:54;98009.48;;;22.07;100.00
35479;BME280;21594;49.794;18.652;2022-09-09T09:35:20;98023.75;;;22.10;100.00
35479;BME280;21594;49.794;18.652;2022-09-09T09:37:52;98021.91;;;22.11;100.00
35479;BME280;21594;49.794;18.652;2022-09-09T09:40:20;98022.23;;;22.12;100.00
35479;BME280;21594;49.794;18.652;2022-09-09T09:42:56;98021.98;;;22.07;100.00
35479;BME280;21594;49.794;18.652;2022-09-09T09:48:01;98030.80;;;22.07;100.00
35479;BME280;21594;49.794;18.652;2022-09-09T09:50:46;98026.48;;;22.17;100.00
35479;BME280;21594;49.794;18.652;2022-09-09T09:53:17;98029.33;;;22.26;100.00
35479;BME280;21594;49.794;18.652;2022-09-09T09:55:49;98045.65;;;22.38;100.00
35479;BME280;21594;49.794;18.652;2022-09-09T09:58:15;98049.07;;;22.42;100.00
35479;BME280;21594;49.794;18.652;2022-09-09T10:00:52;98046.94;;;22.42;100.00
35479;BME280;21594;49.794;18.652;2022-09-09T10:03:31;98058.36;;;22.46;100.00
35479;BME280;21594;49.794;18.652;2022-09-09T10:06:00;98063.88;;;22.56;100.00
35479;BME280;21594;49.794;18.652;2022-09-09T10:08:33;98066.72;;;22.54;100.00
35479;BME280;21594;49.794;18.652;2022-09-09T10:11:10;98059.22;;;22.53;100.00
35479;BME280;21594;49.794;18.652;2022-09-09T10:37:41;98048.88;;;22.54;100.00
35479;BME280;21594;49.794;18.652;2022-09-09T10:42:58;98051.87;;;22.56;100.00
35479;BME280;21594;49.794;18.652;2022-09-09T10:45:29;98055.80;;;22.60;100.00
35479;BME280;21594;49.794;18.652;2022-09-09T10:48:08;98051.93;;;22.62;100.00
35479;BME280;21594;49.794;18.652;2022-09-09T10:53:18;98041.76;;;22.83;100.00
35479;BME280;21594;49.794;18.652;2022-09-09T10:55:43;98035.53;;;22.76;100.00
35479;BME280;21594;49.794;18.652;2022-09-09T10:58:46;98033.44;;;22.61;100.00
35479;BME280;21594;49.794;18.652;2022-09-09T11:00:51;98028.27;;;22.52;100.00
35479;BME280;21594;49.794;18.652;2022-09-09T11:03:32;98032.77;;;22.52;100.00
35479;BME280;21594;49.794;18.652;2022-09-09T11:06:09;98038.79;;;22.71;100.00
35479;BME280;21594;49.794;18.652;2022-09-09T11:08:39;98042.18;;;22.86;100.00
35479;BME280;21594;49.794;18.652;2022-09-09T11:27:15;98062.70;;;23.31;100.00
35479;BME280;21594;49.794;18.652;2022-09-09T11:32:47;98053.91;;;23.37;100.00
35479;BME280;21594;49.794;18.652;2022-09-09T11:40:28;98055.16;;;23.41;100.00
35479;BME280;21594;49.794;18.652;2022-09-09T11:45:57;98046.84;;;23.57;100.00
35479;BME280;21594;49.794;18.652;2022-09-09T11:48:43;98050.50;;;23.67;100.00
35479;BME280;21594;49.794;18.652;2022-09-09T11:53:53;98044.36;;;23.49;100.00
35479;BME280;21594;49.794;18.652;2022-09-09T11:56:30;98052.18;;;23.51;100.00
35479;BME280;21594;49.794;18.652;2022-09-09T11:58:58;98047.48;;;23.59;100.00
35479;BME280;21594;49.794;18.652;2022-09-09T12:01:27;98054.00;;;23.67;100.00
35479;BME280;21594;49.794;18.652;2022-09-09T12:04:13;98053.62;;;23.77;100.00
35479;BME280;21594;49.794;18.652;2022-09-09T12:20:34;98066.92;;;23.88;100.00
35479;BME280;21594;49.794;18.652;2022-09-09T12:23:15;98060.27;;;23.94;100.00
35479;BME280;21594;49.794;18.652;2022-09-09T12:39:47;98043.73;;;24.08;100.00
35479;BME280;21594;49.794;18.652;2022-09-09T12:42:20;98035.52;;;24.09;100.00
35479;BME280;21594;49.794;18.652;2022-09-09T12:47:40;98038.20;;;24.09;100.00
35479;BME280;21594;49.794;18.652;2022-09-09T12:50:27;98037.46;;;24.11;100.00
35479;BME280;21594;49.794;18.652;2022-09-09T12:56:05;98031.45;;;24.20;100.00
35479;BME280;21594;49.794;18.652;2022-09-09T12:58:13;98029.63;;;24.27;100.00
35479;BME280;21594;49.794;18.652;2022-09-09T13:00:53;98035.77;;;24.28;100.00
35479;BME280;21594;49.794;18.652;2022-09-09T13:03:23;98030.12;;;24.33;100.00
35479;BME280;21594;49.794;18.652;2022-09-09T13:05:50;98020.89;;;24.42;100.00
35479;BME280;21594;49.794;18.652;2022-09-09T13:08:25;98022.44;;;24.47;100.00
35479;BME280;21594;49.794;18.652;2022-09-09T13:11:12;98022.95;;;24.47;100.00
35479;BME280;21594;49.794;18.652;2022-09-09T13:13:54;98033.33;;;24.46;100.00
35479;BME280;21594;49.794;18.652;2022-09-09T13:21:38;98031.58;;;24.36;100.00
35479;BME280;21594;49.794;18.652;2022-09-09T13:24:21;98024.17;;;24.31;100.00
35479;BME280;21594;49.794;18.652;2022-09-09T13:26:35;98021.38;;;24.29;100.00
35479;BME280;21594;49.794;18.652;2022-09-09T13:32:12;98021.78;;;24.19;100.00
35479;BME280;21594;49.794;18.652;2022-09-09T13:37:41;98021.60;;;23.97;100.00
35479;BME280;21594;49.794;18.652;2022-09-09T13:40:17;98016.15;;;24.01;100.00
35479;BME280;21594;49.794;18.652;2022-09-09T13:42:40;98016.98;;;24.01;100.00
35479;BME280;21594;49.794;18.652;2022-09-09T13:45:16;98005.85;;;23.91;100.00
35479;BME280;21594;49.794;18.652;2022-09-09T13:47:45;97995.43;;;23.79;100.00
35479;BME280;21594;49.794;18.652;2022-09-09T13:50:22;97994.91;;;23.66;100.00
35479;BME280;21594;49.794;18.652;2022-09-09T13:52:56;97988.83;;;23.68;100.00
35479;BME280;21594;49.794;18.652;2022-09-09T13:55:29;97985.89;;;23.81;100.00
35479;BME280;21594;49.794;18.652;2022-09-09T13:58:01;97990.75;;;23.88;100.00
35479;BME280;21594;49.794;18.652;2022-09-09T14:00:31;97983.25;;;23.94;100.00
35479;BME280;21594;49.794;18.652;2022-09-09T14:02:57;97986.14;;;24.12;100.00
35479;BME280;21594;49.794;18.652;2022-09-09T14:05:25;97982.28;;;24.28;100.00
35479;BME280;21594;49.794;18.652;2022-09-09T14:07:53;97982.42;;;24.43;100.00
35479;BME280;21594;49.794;18.652;2022-09-09T14:10:20;97977.55;;;24.49;100.00
35479;BME280;21594;49.794;18.652;2022-09-09T14:12:46;97977.04;;;24.50;100.00
35479;BME280;21594;49.794;18.652;2022-09-09T14:17:42;97968.67;;;24.09;100.00
35479;BME280;21594;49.794;18.652;2022-09-09T14:22:44;97965.49;;;24.10;100.00
35479;BME280;21594;49.794;18.652;2022-09-09T14:25:13;97959.03;;;24.28;100.00
35479;BME280;21594;49.794;18.652;2022-09-09T14:27:39;97959.37;;;25.04;100.00
35479;BME280;21594;49.794;18.652;2022-09-09T14:30:13;97952.89;;;25.98;100.00
35479;BME280;21594;49.794;18.652;2022-09-09T14:32:42;97954.47;;;26.28;100.00
35479;BME280;21594;49.794;18.652;2022-09-09T14:35:09;97957.39;;;26.04;100.00
35479;BME280;21594;49.794;18.652;2022-09-09T14:37:44;97964.75;;;25.84;100.00
35479;BME280;21594;49.794;18.652;2022-09-09T14:40:12;97953.67;;;25.74;100.00
35479;BME280;21594;49.794;18.652;2022-09-09T14:42:40;97954.45;;;25.59;99.39
35479;BME280;21594;49.794;18.652;2022-09-09T14:45:06;97958.58;;;25.55;98.59
35479;BME280;21594;49.794;18.652;2022-09-09T14:47:33;97959.91;;;25.32;97.54
35479;BME280;21594;49.794;18.652;2022-09-09T14:50:07;97966.56;;;25.17;97.07
35479;BME280;21594;49.794;18.652;2022-09-09T14:52:39;97963.49;;;25.13;96.86
35479;BME280;21594;49.794;18.652;2022-09-09T14:55:07;97970.31;;;25.09;96.80
35479;BME280;21594;49.794;18.652;2022-09-09T14:57:40;97965.81;;;24.90;96.75
35479;BME280;21594;49.794;18.652;2022-09-09T15:00:07;97963.86;;;24.62;96.66
35479;BME280;21594;49.794;18.652;2022-09-09T15:02:36;97968.00;;;24.31;96.64
35479;BME280;21594;49.794;18.652;2022-09-09T15:05:05;97965.72;;;24.28;97.35
35479;BME280;21594;49.794;18.652;2022-09-09T15:10:17;97970.47;;;24.26;98.37
35479;BME280;21594;49.794;18.652;2022-09-09T15:15:18;97974.67;;;24.18;98.94
35479;BME280;21594;49.794;18.652;2022-09-09T15:17:45;97975.17;;;24.11;99.16
35479;BME280;21594;49.794;18.652;2022-09-09T15:20:11;97975.16;;;24.04;99.02
35479;BME280;21594;49.794;18.652;2022-09-09T15:25:17;97983.88;;;24.02;99.50
35479;BME280;21594;49.794;18.652;2022-09-09T15:27:55;97975.83;;;23.83;99.62
35479;BME280;21594;49.794;18.652;2022-09-09T15:30:21;97974.55;;;23.65;99.83
35479;BME280;21594;49.794;18.652;2022-09-09T15:35:23;97971.98;;;23.44;100.00
35479;BME280;21594;49.794;18.652;2022-09-09T15:37:51;97971.66;;;23.43;100.00
35479;BME280;21594;49.794;18.652;2022-09-09T15:40:17;97964.79;;;23.45;100.00
35479;BME280;21594;49.794;18.652;2022-09-09T15:45:18;97960.09;;;23.47;100.00
35479;BME280;21594;49.794;18.652;2022-09-09T15:47:47;97963.58;;;23.47;100.00
35479;BME280;21594;49.794;18.652;2022-09-09T15:50:23;97962.73;;;23.40;100.00
35479;BME280;21594;49.794;18.652;2022-09-09T15:52:49;97955.56;;;23.23;100.00
35479;BME280;21594;49.794;18.652;2022-09-09T15:55:15;97956.79;;;23.04;100.00
35479;BME280;21594;49.794;18.652;2022-09-09T15:57:44;97957.52;;;22.84;100.00
35479;BME280;21594;49.794;18.652;2022-09-09T16:00:24;97964.38;;;22.83;100.00
35479;BME280;21594;49.794;18.652;2022-09-09T16:02:50;97964.28;;;22.87;100.00
35479;BME280;21594;49.794;18.652;2022-09-09T16:05:16;97965.25;;;22.90;100.00
35479;BME280;21594;49.794;18.652;2022-09-09T16:07:42;97956.77;;;22.80;100.00
35479;BME280;21594;49.794;18.652;2022-09-09T16:10:10;97952.83;;;22.65;100.00
35479;BME280;21594;49.794;18.652;2022-09-09T16:12:39;97954.78;;;22.50;100.00
35479;BME280;21594;49.794;18.652;2022-09-09T16:15:05;97958.48;;;22.38;100.00
35479;BME280;21594;49.794;18.652;2022-09-09T16:17:33;97958.90;;;22.25;100.00
35479;BME280;21594;49.794;18.652;2022-09-09T16:20:01;97953.12;;;22.10;100.00
35479;BME280;21594;49.794;18.652;2022-09-09T16:22:41;97956.00;;;22.09;100.00
35479;BME280;21594;49.794;18.652;2022-09-09T16:25:09;97956.61;;;22.11;100.00
35479;BME280;21594;49.794;18.652;2022-09-09T16:27:37;97960.18;;;22.07;100.00
35479;BME280;21594;49.794;18.652;2022-09-09T16:32:39;97959.39;;;21.92;100.00
35479;BME280;21594;49.794;18.652;2022-09-09T16:35:05;97954.45;;;22.00;100.00